Weather at Hyon-ni Airport

Public forecast

Using degrees Celsius for public forecast. Weather courtesy of forecast.io.

Closest aviation weather report (METAR) to Hyon-ni Airport

Closest report is Yangyang International Airport, 66.2 nm (122.6 km) ESE. Retrieved 2020/10/19 23:00 UTC (21 minutes ago):

RKNY 192300Z 24005KT CAVOK 14/06 Q1026 NOSIG

Closest aviation forecast (TAF) to Hyon-ni Airport

Forecast is more than 12 hours old.

Closest forecast is Wonsan Kalma International Airport, 33.3 nm (61.6 km) N. Retrieved 2020/10/19 06:40 UTC (17 hours ago):

TAF ZKWS 190440Z 1906/2006 05004MPS CAVOK TX19/1906Z TN07/1921Z BECMG 2002/2004 24004MPS